الصفحة الرئيسية
METAR-TAF:

METAR-TAF

مطار :

La Veta Pass

La Veta, كولورادو, الولايات المتحدة

دائرة عرض: 37-30-04N, خط طول: 105-10-01W, ارتفاع: 3114 متر

مراقبة الطقس الحالي

تاريخ ووقت الإصدار 22 دقيقة قبل الساعة 02:12UTC
ريح 10 عقدة من الجنوب/الجنوب الغربي تتزايد حتى 19 عقدة
درجة الحرارة 16°درجة مئوية
الرطوبة 16%
ضغط 1032 hPa
الرؤية: 16.1 كم
سماء صافية

METAR: KVTP 260212Z AUTO 21010G19KT 10SM CLR 16/M10 A3047 RMK AO2

زمن: 20:34 (02:34 UTC)


TAF: مفقودة

أرصاد الطقس والتوقعات من أكثر من 4000 مطار (تقارير الطقس للمطار METAR والتنبؤ بالطقس بالمطارTAF).

المحطات المتاحة هي النقط الصفراء والحمراء على الخريطة.

حرك المؤشر فوق النقطة لمعرفة اسم المحطة.

ثم انقر لمعرفة أرصاد وتوقعات الطقس.

لتغيير الخارطة: اضغط على الأزرار الخضراء مع رمز الصليب الأسود للتكبير. على الزر الأخضر مع شرطة للتصغير، أو على الأسهم الخضراء للخرائط المجاورة.


METAR-TAF: